This is the latest recevied weather packets stored in our database for station/object HJ3GNC-15. If no packets are shown the sender has not sent any weather packets the latest 10 day(s).
| Time | Temp. | Humidity | Pressure | Rain* | Wind** | Luminosity | Snow |
|---|---|---|---|---|---|---|---|
| 1777924381 | 26.11° C | 64% | 1011 hPa | 0 mm | - | - | - |
| 1777923439 | 25.56° C | 64% | 1011 hPa | 0 mm | - | - | - |
| 1777922501 | 25° C | 64% | 1011 hPa | 0 mm | - | - | - |
| 1777921549 | 24.44° C | 64% | 1011 hPa | 0 mm | - | - | - |
| 1777920608 | 23.89° C | 64% | 1011 hPa | 0 mm | - | - | - |
| 1777919666 | 23.33° C | 64% | 1011 hPa | 0 mm | - | - | - |
| 1777918722 | 22.78° C | 64% | 1013 hPa | 0 mm | - | - | - |
| 1777917780 | 22.22° C | 64% | 1012 hPa | 0 mm | - | - | - |
| 1777916838 | 21.67° C | 64% | 1012 hPa | 0 mm | - | - | - |
| 1777915894 | 21.11° C | 64% | 1012 hPa | 0 mm | - | - | - |
| 1777914949 | 20° C | 74% | 1014 hPa | 0 mm | - | - | - |
| 1777914008 | 20° C | 75% | 1014 hPa | 0 mm | - | - | - |
| 1777913056 | 20° C | 75% | 1014 hPa | 0 mm | - | - | - |
| 1777912069 | 17.78° C | 82% | 1016 hPa | 0 mm | - | - | - |
| 1777909845 | 17.22° C | 84% | 1016 hPa | 0 mm | - | - | - |
| 1777908633 | 17.22° C | 84% | 1016 hPa | 0 mm | - | - | - |
| 1777907401 | 17.78° C | 72% | 1015 hPa | 0 mm | - | - | - |
| 1777906106 | 18.33° C | 70% | 1015 hPa | 0 mm | - | - | - |
| 1777905033 | 18.33° C | 70% | 1015 hPa | 0 mm | - | - | - |
| 1777903972 | 17.22° C | 71% | 1015 hPa | 0 mm | - | - | - |
| 1777902644 | 17.22° C | 70% | 1015 hPa | 0 mm | - | - | - |
| 1777901457 | 17.22° C | 70% | 1015 hPa | 0 mm | - | - | - |
| 1777900350 | 15.56° C | 81% | 1015 hPa | 0 mm | - | - | - |
| 1777899242 | 15.56° C | 80% | 1015 hPa | 0 mm | - | - | - |
| 1777898049 | 15.56° C | 80% | 1015 hPa | 0 mm | - | - | - |
* Rain latest hour (hover to see other rain measurements)
** Current wind speed in m/s (hover to see current wind gust speed)